sensor_id;sensor_type;location;lat;lon;timestamp;pressure;altitude;pressure_sealevel;temperature;humidity
71105;BME280;58760;48.716;8.962;2022-11-12T00:00:37;98027.84;;;5.79;100.00
71105;BME280;58760;48.716;8.962;2022-11-12T00:03:03;98033.09;;;5.54;100.00
71105;BME280;58760;48.716;8.962;2022-11-12T00:05:29;98026.06;;;5.54;100.00
71105;BME280;58760;48.716;8.962;2022-11-12T00:07:54;98035.31;;;5.60;100.00
71105;BME280;58760;48.716;8.962;2022-11-12T00:10:20;98041.44;;;5.48;100.00
71105;BME280;58760;48.716;8.962;2022-11-12T00:12:46;98032.91;;;5.57;100.00
71105;BME280;58760;48.716;8.962;2022-11-12T00:15:11;98040.28;;;5.52;100.00
71105;BME280;58760;48.716;8.962;2022-11-12T00:17:37;98032.38;;;5.52;100.00
71105;BME280;58760;48.716;8.962;2022-11-12T00:20:03;98032.59;;;5.49;100.00
71105;BME280;58760;48.716;8.962;2022-11-12T00:22:29;98028.06;;;5.51;100.00
71105;BME280;58760;48.716;8.962;2022-11-12T00:24:54;98027.41;;;5.60;100.00
71105;BME280;58760;48.716;8.962;2022-11-12T00:27:20;98031.41;;;5.53;100.00
71105;BME280;58760;48.716;8.962;2022-11-12T00:29:45;98027.97;;;5.52;100.00
71105;BME280;58760;48.716;8.962;2022-11-12T00:32:11;98032.19;;;5.55;100.00
71105;BME280;58760;48.716;8.962;2022-11-12T00:34:36;98035.53;;;5.57;100.00
71105;BME280;58760;48.716;8.962;2022-11-12T00:37:02;98021.00;;;5.64;100.00
71105;BME280;58760;48.716;8.962;2022-11-12T00:39:27;98024.56;;;5.63;100.00
71105;BME280;58760;48.716;8.962;2022-11-12T00:41:53;98026.47;;;5.61;100.00
71105;BME280;58760;48.716;8.962;2022-11-12T00:44:18;98025.22;;;5.66;100.00
71105;BME280;58760;48.716;8.962;2022-11-12T00:46:44;98025.97;;;5.68;100.00
71105;BME280;58760;48.716;8.962;2022-11-12T00:49:09;98027.31;;;5.61;100.00
71105;BME280;58760;48.716;8.962;2022-11-12T00:51:35;98023.41;;;5.67;100.00
71105;BME280;58760;48.716;8.962;2022-11-12T00:54:00;98020.16;;;5.76;100.00
71105;BME280;58760;48.716;8.962;2022-11-12T00:56:26;98026.38;;;5.75;100.00
71105;BME280;58760;48.716;8.962;2022-11-12T00:58:51;98032.19;;;5.55;100.00
71105;BME280;58760;48.716;8.962;2022-11-12T01:01:17;98026.47;;;5.61;100.00
71105;BME280;58760;48.716;8.962;2022-11-12T01:03:42;98018.25;;;5.53;100.00
71105;BME280;58760;48.716;8.962;2022-11-12T01:06:14;98020.78;;;5.42;100.00
71105;BME280;58760;48.716;8.962;2022-11-12T01:08:40;98025.94;;;5.31;100.00
71105;BME280;58760;48.716;8.962;2022-11-12T01:11:08;98022.78;;;5.51;100.00
71105;BME280;58760;48.716;8.962;2022-11-12T01:13:36;98025.63;;;5.35;100.00
71105;BME280;58760;48.716;8.962;2022-11-12T01:16:16;98028.78;;;5.27;100.00
71105;BME280;58760;48.716;8.962;2022-11-12T01:18:42;98037.81;;;5.23;100.00
71105;BME280;58760;48.716;8.962;2022-11-12T01:21:08;98025.69;;;5.21;100.00
71105;BME280;58760;48.716;8.962;2022-11-12T01:23:35;98026.88;;;5.17;100.00
71105;BME280;58760;48.716;8.962;2022-11-12T01:26:05;98018.56;;;5.23;100.00
71105;BME280;58760;48.716;8.962;2022-11-12T01:28:31;98011.75;;;5.33;100.00
71105;BME280;58760;48.716;8.962;2022-11-12T01:30:57;98014.13;;;5.23;100.00
71105;BME280;58760;48.716;8.962;2022-11-12T01:33:24;98011.31;;;5.26;100.00
71105;BME280;58760;48.716;8.962;2022-11-12T01:35:49;98012.25;;;5.13;100.00
71105;BME280;58760;48.716;8.962;2022-11-12T01:38:14;98014.03;;;5.12;100.00
71105;BME280;58760;48.716;8.962;2022-11-12T01:40:40;97993.19;;;5.09;100.00
71105;BME280;58760;48.716;8.962;2022-11-12T01:43:12;97998.09;;;5.01;100.00
71105;BME280;58760;48.716;8.962;2022-11-12T01:45:40;97998.31;;;4.98;100.00
71105;BME280;58760;48.716;8.962;2022-11-12T01:48:13;97994.81;;;4.98;100.00
71105;BME280;58760;48.716;8.962;2022-11-12T01:50:48;97996.53;;;4.99;100.00
71105;BME280;58760;48.716;8.962;2022-11-12T01:53:14;97980.84;;;4.97;100.00
71105;BME280;58760;48.716;8.962;2022-11-12T01:55:39;97979.88;;;4.98;100.00
71105;BME280;58760;48.716;8.962;2022-11-12T01:58:09;97977.16;;;5.00;100.00
71105;BME280;58760;48.716;8.962;2022-11-12T02:00:35;97968.44;;;4.99;100.00
71105;BME280;58760;48.716;8.962;2022-11-12T02:03:03;97967.28;;;4.91;100.00
71105;BME280;58760;48.716;8.962;2022-11-12T02:05:33;97966.00;;;4.96;100.00
71105;BME280;58760;48.716;8.962;2022-11-12T02:08:01;97960.53;;;4.87;100.00
71105;BME280;58760;48.716;8.962;2022-11-12T02:10:27;97965.88;;;4.85;100.00
71105;BME280;58760;48.716;8.962;2022-11-12T02:12:54;97962.81;;;4.79;100.00
71105;BME280;58760;48.716;8.962;2022-11-12T02:15:40;97967.97;;;4.80;100.00
71105;BME280;58760;48.716;8.962;2022-11-12T02:18:05;97967.97;;;4.80;100.00
71105;BME280;58760;48.716;8.962;2022-11-12T02:20:37;97966.41;;;4.78;100.00
71105;BME280;58760;48.716;8.962;2022-11-12T02:23:05;97959.44;;;4.77;100.00
71105;BME280;58760;48.716;8.962;2022-11-12T02:25:31;97959.69;;;4.86;100.00
71105;BME280;58760;48.716;8.962;2022-11-12T02:27:57;97958.19;;;4.82;100.00
71105;BME280;58760;48.716;8.962;2022-11-12T02:30:32;97957.56;;;4.91;100.00
71105;BME280;58760;48.716;8.962;2022-11-12T02:32:57;97955.88;;;4.78;100.00
71105;BME280;58760;48.716;8.962;2022-11-12T02:35:23;97951.44;;;4.78;100.00
71105;BME280;58760;48.716;8.962;2022-11-12T02:37:48;97952.06;;;4.69;100.00
71105;BME280;58760;48.716;8.962;2022-11-12T02:40:14;97955.97;;;4.76;100.00
71105;BME280;58760;48.716;8.962;2022-11-12T02:42:39;97959.31;;;4.65;100.00
71105;BME280;58760;48.716;8.962;2022-11-12T02:45:05;97967.31;;;4.64;100.00
71105;BME280;58760;48.716;8.962;2022-11-12T02:47:30;97952.91;;;4.69;100.00
71105;BME280;58760;48.716;8.962;2022-11-12T02:49:55;97958.66;;;4.62;100.00
71105;BME280;58760;48.716;8.962;2022-11-12T02:52:21;97950.00;;;4.47;100.00
71105;BME280;58760;48.716;8.962;2022-11-12T02:54:46;97951.38;;;4.53;100.00
71105;BME280;58760;48.716;8.962;2022-11-12T02:57:11;97948.88;;;4.51;100.00
71105;BME280;58760;48.716;8.962;2022-11-12T02:59:37;97950.34;;;4.55;100.00
71105;BME280;58760;48.716;8.962;2022-11-12T03:02:02;97941.69;;;4.41;100.00
71105;BME280;58760;48.716;8.962;2022-11-12T03:04:27;97945.69;;;4.46;100.00
71105;BME280;58760;48.716;8.962;2022-11-12T03:06:53;97954.63;;;4.44;100.00
71105;BME280;58760;48.716;8.962;2022-11-12T03:09:18;97955.75;;;4.40;100.00
71105;BME280;58760;48.716;8.962;2022-11-12T03:11:43;97953.03;;;4.41;100.00
71105;BME280;58760;48.716;8.962;2022-11-12T03:14:09;97954.25;;;4.36;100.00
71105;BME280;58760;48.716;8.962;2022-11-12T03:16:34;97953.66;;;4.32;100.00
71105;BME280;58760;48.716;8.962;2022-11-12T03:18:59;97958.50;;;4.38;100.00
71105;BME280;58760;48.716;8.962;2022-11-12T03:21:25;97954.47;;;4.33;100.00
71105;BME280;58760;48.716;8.962;2022-11-12T03:23:50;97959.09;;;4.29;100.00
71105;BME280;58760;48.716;8.962;2022-11-12T03:26:16;97961.91;;;4.26;100.00
71105;BME280;58760;48.716;8.962;2022-11-12T03:28:41;97963.91;;;4.22;100.00
71105;BME280;58760;48.716;8.962;2022-11-12T03:31:06;97970.81;;;4.23;100.00
71105;BME280;58760;48.716;8.962;2022-11-12T03:33:32;97968.00;;;4.27;100.00
71105;BME280;58760;48.716;8.962;2022-11-12T03:35:57;97961.28;;;4.22;100.00
71105;BME280;58760;48.716;8.962;2022-11-12T03:38:22;97958.81;;;4.19;100.00
71105;BME280;58760;48.716;8.962;2022-11-12T03:40:48;97957.88;;;4.20;100.00
71105;BME280;58760;48.716;8.962;2022-11-12T03:43:13;97963.41;;;4.30;100.00
71105;BME280;58760;48.716;8.962;2022-11-12T03:45:39;97952.00;;;4.44;100.00
71105;BME280;58760;48.716;8.962;2022-11-12T03:48:04;97962.72;;;4.41;100.00
71105;BME280;58760;48.716;8.962;2022-11-12T03:50:30;97955.97;;;4.37;100.00
71105;BME280;58760;48.716;8.962;2022-11-12T03:52:57;97961.88;;;4.40;100.00
71105;BME280;58760;48.716;8.962;2022-11-12T03:55:25;97958.06;;;4.32;99.84
71105;BME280;58760;48.716;8.962;2022-11-12T03:57:52;97958.06;;;4.32;99.88
71105;BME280;58760;48.716;8.962;2022-11-12T04:00:18;97957.66;;;4.38;99.82
71105;BME280;58760;48.716;8.962;2022-11-12T04:02:44;97951.09;;;4.31;99.77
71105;BME280;58760;48.716;8.962;2022-11-12T04:05:09;97963.19;;;4.33;100.00
71105;BME280;58760;48.716;8.962;2022-11-12T04:07:58;97966.34;;;4.26;100.00
71105;BME280;58760;48.716;8.962;2022-11-12T04:10:42;97963.72;;;4.26;100.00
71105;BME280;58760;48.716;8.962;2022-11-12T04:13:08;97963.59;;;4.27;100.00
71105;BME280;58760;48.716;8.962;2022-11-12T04:16:02;97960.31;;;4.23;100.00
71105;BME280;58760;48.716;8.962;2022-11-12T04:18:49;97969.63;;;4.29;100.00
71105;BME280;58760;48.716;8.962;2022-11-12T04:21:37;97962.28;;;4.20;100.00
71105;BME280;58760;48.716;8.962;2022-11-12T04:24:28;97961.81;;;4.28;100.00
71105;BME280;58760;48.716;8.962;2022-11-12T04:27:15;97954.47;;;4.33;100.00
71105;BME280;58760;48.716;8.962;2022-11-12T04:29:42;97954.47;;;4.33;100.00
71105;BME280;58760;48.716;8.962;2022-11-12T04:32:36;97951.75;;;4.34;100.00
71105;BME280;58760;48.716;8.962;2022-11-12T04:35:02;97947.75;;;4.29;100.00
71105;BME280;58760;48.716;8.962;2022-11-12T04:37:30;97956.38;;;4.31;100.00
71105;BME280;58760;48.716;8.962;2022-11-12T04:40:21;97950.47;;;4.27;100.00
71105;BME280;58760;48.716;8.962;2022-11-12T04:43:08;97950.47;;;4.27;100.00
71105;BME280;58760;48.716;8.962;2022-11-12T04:45:53;97947.19;;;4.23;100.00
71105;BME280;58760;48.716;8.962;2022-11-12T04:48:20;97945.13;;;4.29;100.00
71105;BME280;58760;48.716;8.962;2022-11-12T04:50:47;97945.31;;;4.26;100.00
71105;BME280;58760;48.716;8.962;2022-11-12T04:53:14;97943.22;;;4.31;100.00
71105;BME280;58760;48.716;8.962;2022-11-12T04:55:39;97944.81;;;4.33;100.00
71105;BME280;58760;48.716;8.962;2022-11-12T04:58:05;97945.84;;;4.31;100.00
71105;BME280;58760;48.716;8.962;2022-11-12T05:00:30;97938.91;;;4.30;100.00
71105;BME280;58760;48.716;8.962;2022-11-12T05:02:55;97946.06;;;4.28;100.00
71105;BME280;58760;48.716;8.962;2022-11-12T05:05:21;97945.97;;;4.29;100.00
71105;BME280;58760;48.716;8.962;2022-11-12T05:07:46;97942.94;;;4.35;100.00
71105;BME280;58760;48.716;8.962;2022-11-12T05:10:12;97939.47;;;4.35;100.00
71105;BME280;58760;48.716;8.962;2022-11-12T05:12:37;97947.44;;;4.33;100.00
71105;BME280;58760;48.716;8.962;2022-11-12T05:15:03;97945.78;;;4.32;100.00
71105;BME280;58760;48.716;8.962;2022-11-12T05:17:29;97942.28;;;4.32;100.00
71105;BME280;58760;48.716;8.962;2022-11-12T05:19:54;97938.91;;;4.30;100.00
71105;BME280;58760;48.716;8.962;2022-11-12T05:22:20;97941.31;;;4.33;100.00
71105;BME280;58760;48.716;8.962;2022-11-12T05:24:45;97952.03;;;4.30;100.00
71105;BME280;58760;48.716;8.962;2022-11-12T05:27:14;97954.78;;;4.28;100.00
71105;BME280;58760;48.716;8.962;2022-11-12T05:29:40;97958.47;;;4.26;100.00
71105;BME280;58760;48.716;8.962;2022-11-12T05:32:06;97956.13;;;4.21;100.00
71105;BME280;58760;48.716;8.962;2022-11-12T05:34:32;97954.63;;;4.17;100.00
71105;BME280;58760;48.716;8.962;2022-11-12T05:36:58;97950.00;;;4.20;100.00
71105;BME280;58760;48.716;8.962;2022-11-12T05:39:24;97955.84;;;4.26;100.00
71105;BME280;58760;48.716;8.962;2022-11-12T05:41:50;97948.22;;;4.21;100.00
71105;BME280;58760;48.716;8.962;2022-11-12T05:44:15;97952.63;;;4.20;100.00
71105;BME280;58760;48.716;8.962;2022-11-12T05:46:41;97955.25;;;4.20;100.00
71105;BME280;58760;48.716;8.962;2022-11-12T05:49:06;97956.50;;;4.15;100.00
71105;BME280;58760;48.716;8.962;2022-11-12T05:51:32;97957.09;;;4.06;100.00
71105;BME280;58760;48.716;8.962;2022-11-12T05:53:58;97956.66;;;3.99;100.00
71105;BME280;58760;48.716;8.962;2022-11-12T05:56:23;97957.31;;;3.89;100.00
71105;BME280;58760;48.716;8.962;2022-11-12T05:58:48;97956.66;;;3.85;100.00
71105;BME280;58760;48.716;8.962;2022-11-12T06:01:14;97959.50;;;3.82;100.00
71105;BME280;58760;48.716;8.962;2022-11-12T06:03:39;97961.19;;;3.83;100.00
71105;BME280;58760;48.716;8.962;2022-11-12T06:06:05;97971.88;;;3.80;100.00
71105;BME280;58760;48.716;8.962;2022-11-12T06:08:30;97968.88;;;3.72;100.00
71105;BME280;58760;48.716;8.962;2022-11-12T06:10:56;97975.53;;;3.63;100.00
71105;BME280;58760;48.716;8.962;2022-11-12T06:13:22;97976.00;;;3.42;99.99
71105;BME280;58760;48.716;8.962;2022-11-12T06:15:48;97978.53;;;3.29;99.32
71105;BME280;58760;48.716;8.962;2022-11-12T06:18:14;97978.34;;;3.18;98.44
71105;BME280;58760;48.716;8.962;2022-11-12T06:20:39;97986.00;;;3.35;98.90
71105;BME280;58760;48.716;8.962;2022-11-12T06:23:04;97987.06;;;3.47;99.57
71105;BME280;58760;48.716;8.962;2022-11-12T06:25:30;97997.53;;;3.33;99.51
71105;BME280;58760;48.716;8.962;2022-11-12T06:27:56;97998.66;;;3.14;99.10
71105;BME280;58760;48.716;8.962;2022-11-12T06:30:22;97999.75;;;3.10;98.78
71105;BME280;58760;48.716;8.962;2022-11-12T06:32:48;97997.13;;;3.10;99.16
71105;BME280;58760;48.716;8.962;2022-11-12T06:35:14;97998.78;;;2.97;98.86
71105;BME280;58760;48.716;8.962;2022-11-12T06:37:40;97995.69;;;2.91;98.94
71105;BME280;58760;48.716;8.962;2022-11-12T06:40:06;97999.03;;;2.79;98.73
71105;BME280;58760;48.716;8.962;2022-11-12T06:42:32;98003.75;;;2.88;98.99
71105;BME280;58760;48.716;8.962;2022-11-12T06:44:57;97999.94;;;3.07;98.57
71105;BME280;58760;48.716;8.962;2022-11-12T06:47:22;97989.06;;;2.99;98.71
71105;BME280;58760;48.716;8.962;2022-11-12T06:49:48;97991.22;;;3.07;99.48
71105;BME280;58760;48.716;8.962;2022-11-12T06:52:14;97987.75;;;3.06;99.57
71105;BME280;58760;48.716;8.962;2022-11-12T06:54:40;97990.38;;;3.06;99.74
71105;BME280;58760;48.716;8.962;2022-11-12T06:57:05;97992.81;;;3.09;100.00
71105;BME280;58760;48.716;8.962;2022-11-12T06:59:30;97984.03;;;3.10;100.00
71105;BME280;58760;48.716;8.962;2022-11-12T07:01:56;97987.50;;;3.11;100.00
71105;BME280;58760;48.716;8.962;2022-11-12T07:04:23;97990.50;;;3.19;100.00
71105;BME280;58760;48.716;8.962;2022-11-12T07:06:48;97986.94;;;3.20;100.00
71105;BME280;58760;48.716;8.962;2022-11-12T07:09:13;97977.78;;;3.27;100.00
71105;BME280;58760;48.716;8.962;2022-11-12T07:11:39;97984.81;;;3.41;99.99
71105;BME280;58760;48.716;8.962;2022-11-12T07:14:05;97986.31;;;3.45;99.11
71105;BME280;58760;48.716;8.962;2022-11-12T07:16:31;97990.06;;;3.41;99.25
71105;BME280;58760;48.716;8.962;2022-11-12T07:18:56;97986.03;;;3.49;99.09
71105;BME280;58760;48.716;8.962;2022-11-12T07:21:21;97989.22;;;3.54;99.40
71105;BME280;58760;48.716;8.962;2022-11-12T07:23:47;97995.38;;;3.67;98.71
71105;BME280;58760;48.716;8.962;2022-11-12T07:26:18;98006.00;;;3.66;98.99
71105;BME280;58760;48.716;8.962;2022-11-12T07:28:45;97993.22;;;3.74;99.16
71105;BME280;58760;48.716;8.962;2022-11-12T07:31:12;98001.31;;;3.85;99.21
71105;BME280;58760;48.716;8.962;2022-11-12T07:33:38;97988.09;;;3.87;99.14
71105;BME280;58760;48.716;8.962;2022-11-12T07:36:10;97981.69;;;3.91;99.35
71105;BME280;58760;48.716;8.962;2022-11-12T07:38:37;97978.75;;;4.09;98.82
71105;BME280;58760;48.716;8.962;2022-11-12T07:41:14;97985.50;;;4.13;98.55
71105;BME280;58760;48.716;8.962;2022-11-12T07:43:41;97974.50;;;4.21;98.47
71105;BME280;58760;48.716;8.962;2022-11-12T07:46:11;97968.06;;;4.12;97.76
71105;BME280;58760;48.716;8.962;2022-11-12T07:48:37;97971.63;;;4.11;97.56
71105;BME280;58760;48.716;8.962;2022-11-12T07:51:11;97975.81;;;4.14;97.97
71105;BME280;58760;48.716;8.962;2022-11-12T07:53:36;97974.69;;;4.18;97.88
71105;BME280;58760;48.716;8.962;2022-11-12T07:56:02;97975.28;;;4.36;98.13
71105;BME280;58760;48.716;8.962;2022-11-12T07:58:32;97975.84;;;4.41;98.27
71105;BME280;58760;48.716;8.962;2022-11-12T08:01:06;97977.66;;;4.53;98.11
71105;BME280;58760;48.716;8.962;2022-11-12T08:03:32;97959.91;;;4.56;97.69
71105;BME280;58760;48.716;8.962;2022-11-12T08:05:59;97966.66;;;4.60;97.48
71105;BME280;58760;48.716;8.962;2022-11-12T08:08:24;97973.50;;;4.63;97.25
71105;BME280;58760;48.716;8.962;2022-11-12T08:10:53;97980.69;;;4.73;96.92
71105;BME280;58760;48.716;8.962;2022-11-12T08:13:19;97974.31;;;4.90;97.34
71105;BME280;58760;48.716;8.962;2022-11-12T08:15:44;97979.03;;;4.98;97.38
71105;BME280;58760;48.716;8.962;2022-11-12T08:18:10;97978.03;;;5.13;97.13
71105;BME280;58760;48.716;8.962;2022-11-12T08:20:35;97975.91;;;5.18;96.33
71105;BME280;58760;48.716;8.962;2022-11-12T08:23:00;97985.44;;;5.33;96.24
71105;BME280;58760;48.716;8.962;2022-11-12T08:25:26;97975.19;;;5.41;96.01
71105;BME280;58760;48.716;8.962;2022-11-12T08:27:55;97978.03;;;5.51;95.35
71105;BME280;58760;48.716;8.962;2022-11-12T08:30:20;97975.94;;;5.56;95.78
71105;BME280;58760;48.716;8.962;2022-11-12T08:32:45;97970.88;;;5.65;95.40
71105;BME280;58760;48.716;8.962;2022-11-12T08:35:11;97973.19;;;5.70;95.73
71105;BME280;58760;48.716;8.962;2022-11-12T08:37:36;97970.09;;;5.76;95.80
71105;BME280;58760;48.716;8.962;2022-11-12T08:40:02;97975.91;;;5.94;95.24
71105;BME280;58760;48.716;8.962;2022-11-12T08:42:27;97969.97;;;6.03;95.06
71105;BME280;58760;48.716;8.962;2022-11-12T08:44:52;97974.50;;;6.13;94.81
71105;BME280;58760;48.716;8.962;2022-11-12T08:47:18;97975.06;;;6.29;94.38
71105;BME280;58760;48.716;8.962;2022-11-12T08:49:43;97972.00;;;6.36;94.12
71105;BME280;58760;48.716;8.962;2022-11-12T08:52:08;97973.00;;;6.46;93.90
71105;BME280;58760;48.716;8.962;2022-11-12T08:54:34;97970.88;;;6.51;93.68
71105;BME280;58760;48.716;8.962;2022-11-12T08:56:59;97974.03;;;6.56;94.11
71105;BME280;58760;48.716;8.962;2022-11-12T08:59:25;97973.56;;;6.62;93.52
71105;BME280;58760;48.716;8.962;2022-11-12T09:01:50;97973.13;;;6.68;92.96
71105;BME280;58760;48.716;8.962;2022-11-12T09:04:15;97969.84;;;6.64;92.79
71105;BME280;58760;48.716;8.962;2022-11-12T09:06:41;97963.41;;;6.68;93.06
71105;BME280;58760;48.716;8.962;2022-11-12T09:09:07;97963.09;;;6.84;92.83
71105;BME280;58760;48.716;8.962;2022-11-12T09:11:33;97964.09;;;6.94;92.77
71105;BME280;58760;48.716;8.962;2022-11-12T09:13:58;97959.13;;;7.13;92.67
71105;BME280;58760;48.716;8.962;2022-11-12T09:16:23;97953.59;;;7.16;92.07
71105;BME280;58760;48.716;8.962;2022-11-12T09:18:49;97946.31;;;7.31;91.89
71105;BME280;58760;48.716;8.962;2022-11-12T09:21:14;97949.44;;;7.58;91.68
71105;BME280;58760;48.716;8.962;2022-11-12T09:23:39;97951.88;;;7.72;90.31
71105;BME280;58760;48.716;8.962;2022-11-12T09:26:05;97943.34;;;7.80;89.98
71105;BME280;58760;48.716;8.962;2022-11-12T09:28:31;97937.31;;;7.89;89.72
71105;BME280;58760;48.716;8.962;2022-11-12T09:30:57;97944.28;;;8.01;89.86
71105;BME280;58760;48.716;8.962;2022-11-12T09:33:30;97947.88;;;8.00;88.73
71105;BME280;58760;48.716;8.962;2022-11-12T09:35:59;97939.09;;;8.22;88.54
71105;BME280;58760;48.716;8.962;2022-11-12T09:38:25;97937.75;;;8.27;87.70
71105;BME280;58760;48.716;8.962;2022-11-12T09:43:20;97937.25;;;8.45;87.76
71105;BME280;58760;48.716;8.962;2022-11-12T09:45:49;97932.91;;;8.44;87.07
71105;BME280;58760;48.716;8.962;2022-11-12T09:48:22;97941.63;;;8.66;87.05
71105;BME280;58760;48.716;8.962;2022-11-12T09:50:59;97942.41;;;8.78;85.38
71105;BME280;58760;48.716;8.962;2022-11-12T09:53:43;97939.91;;;8.76;86.02
71105;BME280;58760;48.716;8.962;2022-11-12T09:56:12;97936.88;;;8.81;85.56
71105;BME280;58760;48.716;8.962;2022-11-12T09:58:38;97932.03;;;8.86;85.16
71105;BME280;58760;48.716;8.962;2022-11-12T10:01:14;97938.03;;;8.88;84.02
71105;BME280;58760;48.716;8.962;2022-11-12T10:04:20;97937.28;;;8.97;84.36
71105;BME280;58760;48.716;8.962;2022-11-12T10:07:00;97933.19;;;9.14;83.86
71105;BME280;58760;48.716;8.962;2022-11-12T10:10:04;97935.66;;;9.26;84.00
71105;BME280;58760;48.716;8.962;2022-11-12T10:12:43;97934.34;;;9.41;82.16
71105;BME280;58760;48.716;8.962;2022-11-12T10:21:35;97930.41;;;9.66;80.97
71105;BME280;58760;48.716;8.962;2022-11-12T10:24:07;97926.81;;;9.67;81.72
71105;BME280;58760;48.716;8.962;2022-11-12T10:26:34;97916.66;;;9.82;82.73
71105;BME280;58760;48.716;8.962;2022-11-12T10:31:35;97906.25;;;9.90;79.82
71105;BME280;58760;48.716;8.962;2022-11-12T10:34:14;97913.38;;;9.99;81.11
71105;BME280;58760;48.716;8.962;2022-11-12T10:36:44;97911.38;;;10.22;80.46
71105;BME280;58760;48.716;8.962;2022-11-12T10:39:40;97908.47;;;10.34;79.36
71105;BME280;58760;48.716;8.962;2022-11-12T10:42:14;97903.72;;;10.47;78.26
71105;BME280;58760;48.716;8.962;2022-11-12T10:44:41;97905.16;;;10.61;77.91
71105;BME280;58760;48.716;8.962;2022-11-12T10:53:02;97896.84;;;11.12;76.76
71105;BME280;58760;48.716;8.962;2022-11-12T10:55:36;97897.97;;;11.19;75.45
71105;BME280;58760;48.716;8.962;2022-11-12T11:00:49;97899.09;;;11.07;74.93
71105;BME280;58760;48.716;8.962;2022-11-12T11:03:20;97898.38;;;11.24;73.88
71105;BME280;58760;48.716;8.962;2022-11-12T11:05:53;97891.03;;;11.45;72.01
71105;BME280;58760;48.716;8.962;2022-11-12T11:08:45;97891.16;;;11.53;71.59
71105;BME280;58760;48.716;8.962;2022-11-12T11:11:18;97881.09;;;11.57;72.35
71105;BME280;58760;48.716;8.962;2022-11-12T11:13:45;97885.03;;;11.90;71.58
71105;BME280;58760;48.716;8.962;2022-11-12T11:16:17;97883.22;;;11.81;71.56
71105;BME280;58760;48.716;8.962;2022-11-12T11:18:49;97886.69;;;11.91;70.81
71105;BME280;58760;48.716;8.962;2022-11-12T11:24:38;97881.97;;;12.12;71.12
71105;BME280;58760;48.716;8.962;2022-11-12T11:30:15;97869.59;;;12.56;67.65
71105;BME280;58760;48.716;8.962;2022-11-12T11:33:25;97865.34;;;12.63;66.72
71105;BME280;58760;48.716;8.962;2022-11-12T11:38:41;97863.09;;;13.37;65.01
71105;BME280;58760;48.716;8.962;2022-11-12T11:44:05;97866.25;;;14.83;61.24
71105;BME280;58760;48.716;8.962;2022-11-12T12:00:20;97837.56;;;17.76;52.55
71105;BME280;58760;48.716;8.962;2022-11-12T12:05:31;97835.09;;;18.40;50.73
71105;BME280;58760;48.716;8.962;2022-11-12T12:08:04;97839.75;;;18.89;49.43
71105;BME280;58760;48.716;8.962;2022-11-12T12:21:19;97817.28;;;17.45;52.41
71105;BME280;58760;48.716;8.962;2022-11-12T12:23:48;97820.84;;;16.85;53.21
71105;BME280;58760;48.716;8.962;2022-11-12T12:26:20;97819.38;;;16.60;54.39
71105;BME280;58760;48.716;8.962;2022-11-12T12:31:16;97811.91;;;16.93;54.45
71105;BME280;58760;48.716;8.962;2022-11-12T12:33:55;97800.59;;;16.83;54.38
71105;BME280;58760;48.716;8.962;2022-11-12T12:36:40;97808.19;;;17.31;52.20
71105;BME280;58760;48.716;8.962;2022-11-12T12:42:02;97799.75;;;17.19;52.92
71105;BME280;58760;48.716;8.962;2022-11-12T12:44:35;97802.09;;;17.22;52.37
71105;BME280;58760;48.716;8.962;2022-11-12T12:47:24;97796.97;;;17.13;52.83
71105;BME280;58760;48.716;8.962;2022-11-12T12:49:51;97800.63;;;17.64;52.25
71105;BME280;58760;48.716;8.962;2022-11-12T12:52:17;97796.28;;;17.77;51.20
71105;BME280;58760;48.716;8.962;2022-11-12T12:57:37;97788.41;;;17.91;49.97
71105;BME280;58760;48.716;8.962;2022-11-12T13:03:03;97787.28;;;18.57;48.16
71105;BME280;58760;48.716;8.962;2022-11-12T13:05:34;97790.56;;;18.52;47.92
71105;BME280;58760;48.716;8.962;2022-11-12T13:08:08;97787.03;;;18.16;49.48
71105;BME280;58760;48.716;8.962;2022-11-12T13:15:48;97775.28;;;18.02;50.67
71105;BME280;58760;48.716;8.962;2022-11-12T13:21:20;97774.28;;;16.63;56.11
71105;BME280;58760;48.716;8.962;2022-11-12T13:23:56;97774.97;;;16.12;57.89
71105;BME280;58760;48.716;8.962;2022-11-12T13:26:56;97770.03;;;15.62;60.11
71105;BME280;58760;48.716;8.962;2022-11-12T13:32:26;97761.03;;;15.55;61.37
71105;BME280;58760;48.716;8.962;2022-11-12T13:37:56;97762.38;;;15.59;61.58
71105;BME280;58760;48.716;8.962;2022-11-12T13:43:39;97765.31;;;15.17;63.92
71105;BME280;58760;48.716;8.962;2022-11-12T13:51:03;97773.38;;;15.01;63.56
71105;BME280;58760;48.716;8.962;2022-11-12T13:53:30;97779.09;;;14.82;61.78
71105;BME280;58760;48.716;8.962;2022-11-12T13:55:57;97771.06;;;14.74;61.26
71105;BME280;58760;48.716;8.962;2022-11-12T13:58:28;97769.75;;;14.61;60.48
71105;BME280;58760;48.716;8.962;2022-11-12T14:00:56;97772.75;;;14.42;61.50
71105;BME280;58760;48.716;8.962;2022-11-12T14:03:25;97787.94;;;14.42;61.61
71105;BME280;58760;48.716;8.962;2022-11-12T14:05:54;97772.50;;;14.11;63.19
71105;BME280;58760;48.716;8.962;2022-11-12T14:08:43;97773.53;;;14.10;63.38
71105;BME280;58760;48.716;8.962;2022-11-12T14:16:46;97768.25;;;13.77;64.88
71105;BME280;58760;48.716;8.962;2022-11-12T14:19:38;97765.72;;;13.67;65.53
71105;BME280;58760;48.716;8.962;2022-11-12T14:22:14;97755.22;;;13.66;67.54
71105;BME280;58760;48.716;8.962;2022-11-12T14:24:41;97754.81;;;13.44;69.65
71105;BME280;58760;48.716;8.962;2022-11-12T14:32:36;97754.00;;;13.10;70.69
71105;BME280;58760;48.716;8.962;2022-11-12T14:37:49;97754.06;;;12.75;73.06
71105;BME280;58760;48.716;8.962;2022-11-12T14:40:17;97758.28;;;12.59;73.19
71105;BME280;58760;48.716;8.962;2022-11-12T14:42:43;97755.34;;;12.45;73.71
71105;BME280;58760;48.716;8.962;2022-11-12T14:45:16;97765.34;;;12.25;75.39
71105;BME280;58760;48.716;8.962;2022-11-12T14:47:43;97761.31;;;12.21;74.81
71105;BME280;58760;48.716;8.962;2022-11-12T14:50:15;97758.16;;;12.26;74.40
71105;BME280;58760;48.716;8.962;2022-11-12T14:52:45;97755.59;;;11.98;75.33
71105;BME280;58760;48.716;8.962;2022-11-12T14:55:17;97754.97;;;11.87;75.75
71105;BME280;58760;48.716;8.962;2022-11-12T14:57:44;97763.25;;;11.84;75.92